Fulmar — WDD3992 — position and weather

sailwx.info

Track history (hours):
 
Tides and Currents Weather Stations Pressure Air Temp Water Temp Dewpoint Dewpoint Depression Visibility Wind Speed Wind Dir Waves Ship Positions

Oceanographic research ship Fulmar (United States)

Owner: NOAA R/V Fulmar, Monterey, CA. More information available from US FCC via Universal Licensing System.

Last reported at 2017-Oct-05 22:12 UTC. Time now 2017-Oct-20 19:56 UTC.
Position N 36°37' W 121°54'.
Warning: this ship's position is 14 days out of date.

Length 20 m; draft 2 m.

Type: Ship. MMSI: 367139040.

Date/timePositionNaut miles runAvg speedWind from/ knotsBaromVisibWave heightAir tempDewpointWater temp
2017-Oct-05 22:12N 36°37' W 121°54'0 0.3
2017-Oct-05 22:00N 36°37' W 121°53'0 0.3
2017-Oct-05 21:30N 36°37' W 121°54'3713.9
2017-Oct-05 18:51N 37°06' W 122°22'515.2
2017-Oct-05 18:30N 37°10' W 122°25'714.5
2017-Oct-05 18:00N 37°17' W 122°29'714.0
2017-Oct-05 17:30N 37°23' W 122°31'714.6
2017-Oct-05 17:00N 37°31' W 122°34'2114.2
2017-Oct-05 15:30N 37°51' W 122°28'1 1.7
2017-Oct-05 14:59N 37°52' W 122°30'0 0.0
2017-Oct-05 02:49N 37°52' W 122°30'0 0.2
2017-Oct-05 02:31N 37°52' W 122°30'0 0.1
2017-Oct-05 02:01N 37°52' W 122°30'3 5.6
2017-Oct-05 01:30N 37°49' W 122°30'714.3
2017-Oct-05 01:00N 37°49' W 122°39'816.4
2017-Oct-05 00:30N 37°50' W 122°49'612.2
2017-Oct-05 00:00N 37°50' W 122°57'612.7
2017-Oct-04 23:30N 37°51' W 123°05'915.6
2017-Oct-04 22:57N 37°52' W 123°15'816.9
2017-Oct-04 22:28N 37°53' W 123°26'1 1.0
2017-Oct-04 21:50N 37°53' W 123°26'0 0.3
2017-Oct-04 20:32N 37°53' W 123°26'0 1.5
2017-Oct-04 20:30N 37°53' W 123°26'0 0.2
2017-Oct-04 19:43N 37°53' W 123°26'0 0.5
2017-Oct-04 19:29N 37°53' W 123°26'0 0.0
2017-Oct-04 18:21N 37°53' W 123°26'5 5.6
2017-Oct-04 17:23N 37°52' W 123°19'615.7
2017-Oct-04 17:00N 37°52' W 123°12'713.9
2017-Oct-04 16:30N 37°51' W 123°03'816.7
2017-Oct-04 16:00N 37°50' W 122°53'816.1
2017-Oct-04 15:28N 37°49' W 122°42'816.1
2017-Oct-04 15:00N 37°49' W 122°32'4 7.8
2017-Oct-04 14:30N 37°52' W 122°29'0 0.2
2017-Oct-04 14:00N 37°52' W 122°30'0 0.0
2017-Oct-04 13:30N 37°52' W 122°30'0 0.0
2017-Oct-04 00:18N 37°52' W 122°30'0 0.2
2017-Oct-04 00:00N 37°52' W 122°30'0 0.0
2017-Oct-03 23:30N 37°52' W 122°30'0 0.0
2017-Oct-03 23:00N 37°52' W 122°30'1 1.3
2017-Oct-03 22:30N 37°52' W 122°29'4 9.1
2017-Oct-03 22:01N 37°48' W 122°31'1014.8
2017-Oct-03 21:22N 37°38' W 122°33'616.4
2017-Oct-03 21:01N 37°32' W 122°33'714.2
2017-Oct-03 20:30N 37°26' W 122°31'815.6
2017-Oct-03 20:00N 37°18' W 122°28'713.7
2017-Oct-03 19:30N 37°12' W 122°25'4213.3
2017-Oct-03 16:21N 36°38' W 121°54'1 4.1
2017-Oct-03 16:00N 36°37' W 121°54'0 0.0
2017-Oct-03 15:30N 36°37' W 121°54'0 0.2
2017-Oct-03 15:00N 36°37' W 121°54'  
2017-Sep-30 00:39N 36°37' W 121°54'0 0.4
2017-Sep-30 00:30N 36°37' W 121°53'5117.0
2017-Sep-29 21:32N 37°18' W 122°29'118.3
2017-Sep-29 21:30N 37°19' W 122°29'1618.2
2017-Sep-29 20:38N 37°34' W 122°33'218.1
2017-Sep-29 20:31N 37°37' W 122°33'917.3
2017-Sep-29 19:59N 37°46' W 122°33'713.9
2017-Sep-29 19:30N 37°52' W 122°29'1 1.1
2017-Sep-29 19:00N 37°52' W 122°30'1 1.2
2017-Sep-29 18:30N 37°52' W 122°29'4 8.6
2017-Sep-29 18:00N 37°50' W 122°34'1312.5
2017-Sep-29 16:58N 37°54' W 122°50'3 5.1
2017-Sep-29 16:28N 37°56' W 122°51'4 6.4
2017-Sep-29 15:53N 37°59' W 122°54'512.2
2017-Sep-29 15:30N 37°59' W 123°00'715.1
2017-Sep-29 15:01N 38°06' W 123°02'817.0
2017-Sep-29 14:31N 38°15' W 123°02'510.4
2017-Sep-29 14:00N 38°20' W 123°03'0 0.4
2017-Sep-29 13:30N 38°20' W 123°03'0 0.0
2017-Sep-29 00:03N 38°20' W 123°03'0 0.2
2017-Sep-29 00:00N 38°20' W 123°03'2 4.5
2017-Sep-28 23:30N 38°18' W 123°02'815.7
2017-Sep-28 23:00N 38°13' W 123°10'1 2.6
2017-Sep-28 22:30N 38°13' W 123°12'4 8.3
2017-Sep-28 22:00N 38°13' W 123°17'3 6.6
2017-Sep-28 21:30N 38°13' W 123°21'2 4.4
2017-Sep-28 21:00N 38°12' W 123°24'1 2.3
2017-Sep-28 20:30N 38°13' W 123°23'0 0.7
2017-Sep-28 20:00N 38°13' W 123°23'3 5.9
2017-Sep-28 19:30N 38°13' W 123°27'2 3.9
2017-Sep-28 19:00N 38°13' W 123°29'5 9.0
2017-Sep-28 18:30N 38°12' W 123°35'1 1.0
2017-Sep-28 18:00N 38°13' W 123°36'510.0
2017-Sep-28 17:31N 38°17' W 123°33'510.3
2017-Sep-28 17:00N 38°17' W 123°26'510.5
2017-Sep-28 16:30N 38°18' W 123°19'510.6
2017-Sep-28 16:00N 38°18' W 123°13'510.5
2017-Sep-28 15:30N 38°18' W 123°06'3 5.2
2017-Sep-28 15:00N 38°19' W 123°03'1 1.7
2017-Sep-28 14:30N 38°20' W 123°03'0 0.1
2017-Sep-28 14:00N 38°20' W 123°03'0 0.0
2017-Sep-28 13:30N 38°20' W 123°03'0 0.0
2017-Sep-27 23:42N 38°20' W 123°03'0 1.5
2017-Sep-27 23:30N 38°20' W 123°03'4 8.7
2017-Sep-27 23:01N 38°15' W 123°03'917.1
2017-Sep-27 22:30N 38°07' W 123°08'5 9.1
2017-Sep-27 21:59N 38°03' W 123°11'3 6.4
2017-Sep-27 21:30N 38°03' W 123°15'2 4.0
2017-Sep-27 21:00N 38°03' W 123°17'4 8.0
2017-Sep-27 20:31N 38°03' W 123°22'3 6.7
2017-Sep-27 20:00N 38°03' W 123°26'2 4.8
2017-Sep-27 19:30N 38°03' W 123°30'3 6.3
2017-Sep-27 19:00N 38°03' W 123°34'1 2.5
2017-Sep-27 18:30N 38°02' W 123°32'1 2.1
2017-Sep-27 18:01N 38°03' W 123°31'1 1.2
2017-Sep-27 17:30N 38°02' W 123°32'1 1.6
2017-Sep-27 17:01N 38°03' W 123°31'714.4
2017-Sep-27 16:30N 38°07' W 123°23'816.8
2017-Sep-27 16:00N 38°11' W 123°14'817.0
2017-Sep-27 15:30N 38°16' W 123°05'4 8.2
2017-Sep-27 15:00N 38°20' W 123°03'0 0.3
2017-Sep-27 14:30N 38°20' W 123°03'0 0.0
2017-Sep-27 00:08N 38°20' W 123°03'0 1.3
2017-Sep-27 00:01N 38°20' W 123°03'4 7.7
2017-Sep-26 23:30N 38°16' W 123°04'4 7.8
2017-Sep-26 23:00N 38°13' W 123°08'510.1
2017-Sep-26 22:30N 38°13' W 123°01'510.1
2017-Sep-26 22:00N 38°08' W 122°60'5 9.8
2017-Sep-26 21:30N 38°04' W 123°01'510.3
2017-Sep-26 21:01N 38°03' W 123°08'5 9.1
2017-Sep-26 20:30N 37°59' W 123°07'5 9.2
2017-Sep-26 20:00N 37°58' W 123°13'510.5
2017-Sep-26 19:30N 37°58' W 123°20'510.7
2017-Sep-26 19:00N 37°58' W 123°27'5 9.8
2017-Sep-26 18:31N 38°01' W 123°31'612.7
2017-Sep-26 18:00N 38°08' W 123°31'5 9.8
2017-Sep-26 17:30N 38°08' W 123°25'510.0
2017-Sep-26 17:00N 38°08' W 123°19'510.2
2017-Sep-26 16:30N 38°08' W 123°12'510.7
2017-Sep-26 16:00N 38°09' W 123°06'510.3
2017-Sep-26 15:30N 38°09' W 122°59'510.7
2017-Sep-26 15:00N 38°14' W 123°00'611.2
2017-Sep-26 14:30N 38°19' W 123°03'1 1.5
2017-Sep-26 14:00N 38°20' W 123°03'0 0.0
2017-Sep-26 13:30N 38°20' W 123°03'0 0.0
2017-Sep-26 02:01N 38°20' W 123°03'0 0.0
2017-Sep-26 02:00N 38°20' W 123°03'2 3.0
2017-Sep-26 01:31N 38°18' W 123°03'714.2
2017-Sep-26 01:01N 38°11' W 123°03'816.6
2017-Sep-26 00:31N 38°03' W 123°04'816.7
2017-Sep-26 00:01N 37°55' W 123°05'1 2.4
2017-Sep-25 23:30N 37°54' W 123°06'4 7.8
2017-Sep-25 23:00N 37°53' W 123°11'3 5.4
2017-Sep-25 22:30N 37°53' W 123°14'  
Track history (hours):
 
Tides and Currents Weather Stations Pressure Air Temp Water Temp Dewpoint Dewpoint Depression Visibility Wind Speed Wind Dir Waves Ship Positions

Oceanographic research ship Fulmar (United States)

Owner: NOAA R/V Fulmar, Monterey, CA. More information available from US FCC via Universal Licensing System.

Last reported at 2017-Oct-05 22:12 UTC. Time now 2017-Oct-20 19:56 UTC.
Position N 36°37' W 121°54'.
Warning: this ship's position is 14 days out of date.

Length 20 m; draft 2 m.

Type: Ship. MMSI: 367139040.

Date/timePositionNaut miles runAvg speedWind from/ knotsBaromVisibWave heightAir tempDewpointWater temp
2017-Oct-05 22:12N 36°37' W 121°54'0 0.3
2017-Oct-05 22:00N 36°37' W 121°53'0 0.3
2017-Oct-05 21:30N 36°37' W 121°54'3713.9
2017-Oct-05 18:51N 37°06' W 122°22'515.2
2017-Oct-05 18:30N 37°10' W 122°25'714.5
2017-Oct-05 18:00N 37°17' W 122°29'714.0
2017-Oct-05 17:30N 37°23' W 122°31'714.6
2017-Oct-05 17:00N 37°31' W 122°34'2114.2
2017-Oct-05 15:30N 37°51' W 122°28'1 1.7
2017-Oct-05 14:59N 37°52' W 122°30'0 0.0
2017-Oct-05 02:49N 37°52' W 122°30'0 0.2
2017-Oct-05 02:31N 37°52' W 122°30'0 0.1
2017-Oct-05 02:01N 37°52' W 122°30'3 5.6
2017-Oct-05 01:30N 37°49' W 122°30'714.3
2017-Oct-05 01:00N 37°49' W 122°39'816.4
2017-Oct-05 00:30N 37°50' W 122°49'612.2
2017-Oct-05 00:00N 37°50' W 122°57'612.7
2017-Oct-04 23:30N 37°51' W 123°05'915.6
2017-Oct-04 22:57N 37°52' W 123°15'816.9
2017-Oct-04 22:28N 37°53' W 123°26'1 1.0
2017-Oct-04 21:50N 37°53' W 123°26'0 0.3
2017-Oct-04 20:32N 37°53' W 123°26'0 1.5
2017-Oct-04 20:30N 37°53' W 123°26'0 0.2
2017-Oct-04 19:43N 37°53' W 123°26'0 0.5
2017-Oct-04 19:29N 37°53' W 123°26'0 0.0
2017-Oct-04 18:21N 37°53' W 123°26'5 5.6
2017-Oct-04 17:23N 37°52' W 123°19'615.7
2017-Oct-04 17:00N 37°52' W 123°12'713.9
2017-Oct-04 16:30N 37°51' W 123°03'816.7
2017-Oct-04 16:00N 37°50' W 122°53'816.1
2017-Oct-04 15:28N 37°49' W 122°42'816.1
2017-Oct-04 15:00N 37°49' W 122°32'4 7.8
2017-Oct-04 14:30N 37°52' W 122°29'0 0.2
2017-Oct-04 14:00N 37°52' W 122°30'0 0.0
2017-Oct-04 13:30N 37°52' W 122°30'0 0.0
2017-Oct-04 00:18N 37°52' W 122°30'0 0.2
2017-Oct-04 00:00N 37°52' W 122°30'0 0.0
2017-Oct-03 23:30N 37°52' W 122°30'0 0.0
2017-Oct-03 23:00N 37°52' W 122°30'1 1.3
2017-Oct-03 22:30N 37°52' W 122°29'4 9.1
2017-Oct-03 22:01N 37°48' W 122°31'1014.8
2017-Oct-03 21:22N 37°38' W 122°33'616.4
2017-Oct-03 21:01N 37°32' W 122°33'714.2
2017-Oct-03 20:30N 37°26' W 122°31'815.6
2017-Oct-03 20:00N 37°18' W 122°28'713.7
2017-Oct-03 19:30N 37°12' W 122°25'4213.3
2017-Oct-03 16:21N 36°38' W 121°54'1 4.1
2017-Oct-03 16:00N 36°37' W 121°54'0 0.0
2017-Oct-03 15:30N 36°37' W 121°54'0 0.2
2017-Oct-03 15:00N 36°37' W 121°54'  
2017-Sep-30 00:39N 36°37' W 121°54'0 0.4
2017-Sep-30 00:30N 36°37' W 121°53'5117.0
2017-Sep-29 21:32N 37°18' W 122°29'118.3
2017-Sep-29 21:30N 37°19' W 122°29'1618.2
2017-Sep-29 20:38N 37°34' W 122°33'218.1
2017-Sep-29 20:31N 37°37' W 122°33'917.3
2017-Sep-29 19:59N 37°46' W 122°33'713.9
2017-Sep-29 19:30N 37°52' W 122°29'1 1.1
2017-Sep-29 19:00N 37°52' W 122°30'1 1.2
2017-Sep-29 18:30N 37°52' W 122°29'4 8.6
2017-Sep-29 18:00N 37°50' W 122°34'1312.5
2017-Sep-29 16:58N 37°54' W 122°50'3 5.1
2017-Sep-29 16:28N 37°56' W 122°51'4 6.4
2017-Sep-29 15:53N 37°59' W 122°54'512.2
2017-Sep-29 15:30N 37°59' W 123°00'715.1
2017-Sep-29 15:01N 38°06' W 123°02'817.0
2017-Sep-29 14:31N 38°15' W 123°02'510.4
2017-Sep-29 14:00N 38°20' W 123°03'0 0.4
2017-Sep-29 13:30N 38°20' W 123°03'0 0.0
2017-Sep-29 00:03N 38°20' W 123°03'0 0.2
2017-Sep-29 00:00N 38°20' W 123°03'2 4.5
2017-Sep-28 23:30N 38°18' W 123°02'815.7
2017-Sep-28 23:00N 38°13' W 123°10'1 2.6
2017-Sep-28 22:30N 38°13' W 123°12'4 8.3
2017-Sep-28 22:00N 38°13' W 123°17'3 6.6
2017-Sep-28 21:30N 38°13' W 123°21'2 4.4
2017-Sep-28 21:00N 38°12' W 123°24'1 2.3
2017-Sep-28 20:30N 38°13' W 123°23'0 0.7
2017-Sep-28 20:00N 38°13' W 123°23'3 5.9
2017-Sep-28 19:30N 38°13' W 123°27'2 3.9
2017-Sep-28 19:00N 38°13' W 123°29'5 9.0
2017-Sep-28 18:30N 38°12' W 123°35'1 1.0
2017-Sep-28 18:00N 38°13' W 123°36'510.0
2017-Sep-28 17:31N 38°17' W 123°33'510.3
2017-Sep-28 17:00N 38°17' W 123°26'510.5
2017-Sep-28 16:30N 38°18' W 123°19'510.6
2017-Sep-28 16:00N 38°18' W 123°13'510.5
2017-Sep-28 15:30N 38°18' W 123°06'3 5.2
2017-Sep-28 15:00N 38°19' W 123°03'1 1.7
2017-Sep-28 14:30N 38°20' W 123°03'0 0.1
2017-Sep-28 14:00N 38°20' W 123°03'0 0.0
2017-Sep-28 13:30N 38°20' W 123°03'0 0.0
2017-Sep-27 23:42N 38°20' W 123°03'0 1.5
2017-Sep-27 23:30N 38°20' W 123°03'4 8.7
2017-Sep-27 23:01N 38°15' W 123°03'917.1
2017-Sep-27 22:30N 38°07' W 123°08'5 9.1
2017-Sep-27 21:59N 38°03' W 123°11'3 6.4
2017-Sep-27 21:30N 38°03' W 123°15'2 4.0
2017-Sep-27 21:00N 38°03' W 123°17'4 8.0
2017-Sep-27 20:31N 38°03' W 123°22'3 6.7
2017-Sep-27 20:00N 38°03' W 123°26'2 4.8
2017-Sep-27 19:30N 38°03' W 123°30'3 6.3
2017-Sep-27 19:00N 38°03' W 123°34'1 2.5
2017-Sep-27 18:30N 38°02' W 123°32'1 2.1
2017-Sep-27 18:01N 38°03' W 123°31'1 1.2
2017-Sep-27 17:30N 38°02' W 123°32'1 1.6
2017-Sep-27 17:01N 38°03' W 123°31'714.4
2017-Sep-27 16:30N 38°07' W 123°23'816.8
2017-Sep-27 16:00N 38°11' W 123°14'817.0
2017-Sep-27 15:30N 38°16' W 123°05'4 8.2
2017-Sep-27 15:00N 38°20' W 123°03'0 0.3
2017-Sep-27 14:30N 38°20' W 123°03'0 0.0
2017-Sep-27 00:08N 38°20' W 123°03'0 1.3
2017-Sep-27 00:01N 38°20' W 123°03'4 7.7
2017-Sep-26 23:30N 38°16' W 123°04'4 7.8
2017-Sep-26 23:00N 38°13' W 123°08'510.1
2017-Sep-26 22:30N 38°13' W 123°01'510.1
2017-Sep-26 22:00N 38°08' W 122°60'5 9.8
2017-Sep-26 21:30N 38°04' W 123°01'510.3
2017-Sep-26 21:01N 38°03' W 123°08'5 9.1
2017-Sep-26 20:30N 37°59' W 123°07'5 9.2
2017-Sep-26 20:00N 37°58' W 123°13'510.5
2017-Sep-26 19:30N 37°58' W 123°20'510.7
2017-Sep-26 19:00N 37°58' W 123°27'5 9.8
2017-Sep-26 18:31N 38°01' W 123°31'612.7
2017-Sep-26 18:00N 38°08' W 123°31'5 9.8
2017-Sep-26 17:30N 38°08' W 123°25'510.0
2017-Sep-26 17:00N 38°08' W 123°19'510.2
2017-Sep-26 16:30N 38°08' W 123°12'510.7
2017-Sep-26 16:00N 38°09' W 123°06'510.3
2017-Sep-26 15:30N 38°09' W 122°59'510.7
2017-Sep-26 15:00N 38°14' W 123°00'611.2
2017-Sep-26 14:30N 38°19' W 123°03'1 1.5
2017-Sep-26 14:00N 38°20' W 123°03'0 0.0
2017-Sep-26 13:30N 38°20' W 123°03'0 0.0
2017-Sep-26 02:01N 38°20' W 123°03'0 0.0
2017-Sep-26 02:00N 38°20' W 123°03'2 3.0
2017-Sep-26 01:31N 38°18' W 123°03'714.2
2017-Sep-26 01:01N 38°11' W 123°03'816.6
2017-Sep-26 00:31N 38°03' W 123°04'816.7
2017-Sep-26 00:01N 37°55' W 123°05'1 2.4
2017-Sep-25 23:30N 37°54' W 123°06'4 7.8
2017-Sep-25 23:00N 37°53' W 123°11'3 5.4
2017-Sep-25 22:30N 37°53' W 123°14'  

Dump ship's entire track history